sensor_id;sensor_type;location;lat;lon;timestamp;pressure;altitude;pressure_sealevel;temperature;humidity
11710;BME280;5911;51.036;6.972;2023-05-11T00:00:07;100582.16;;;16.26;100.00
11710;BME280;5911;51.036;6.972;2023-05-11T00:02:36;100588.31;;;16.26;100.00
11710;BME280;5911;51.036;6.972;2023-05-11T00:05:05;100592.13;;;16.24;100.00
11710;BME280;5911;51.036;6.972;2023-05-11T00:07:33;100588.63;;;16.23;100.00
11710;BME280;5911;51.036;6.972;2023-05-11T00:10:01;100591.28;;;16.15;100.00
11710;BME280;5911;51.036;6.972;2023-05-11T00:12:29;100561.59;;;15.94;100.00
11710;BME280;5911;51.036;6.972;2023-05-11T00:14:56;100577.78;;;16.08;100.00
11710;BME280;5911;51.036;6.972;2023-05-11T00:17:26;100578.75;;;15.99;100.00
11710;BME280;5911;51.036;6.972;2023-05-11T00:19:53;100576.34;;;15.80;100.00
11710;BME280;5911;51.036;6.972;2023-05-11T00:22:21;100589.34;;;15.83;100.00
11710;BME280;5911;51.036;6.972;2023-05-11T00:24:49;100592.81;;;15.83;100.00
11710;BME280;5911;51.036;6.972;2023-05-11T00:27:17;100592.31;;;15.80;100.00
11710;BME280;5911;51.036;6.972;2023-05-11T00:29:45;100594.59;;;15.75;100.00
11710;BME280;5911;51.036;6.972;2023-05-11T00:32:13;100591.00;;;15.84;100.00
11710;BME280;5911;51.036;6.972;2023-05-11T00:34:42;100598.63;;;15.79;100.00
11710;BME280;5911;51.036;6.972;2023-05-11T00:37:10;100602.25;;;15.70;100.00
11710;BME280;5911;51.036;6.972;2023-05-11T00:39:37;100597.53;;;15.64;100.00
11710;BME280;5911;51.036;6.972;2023-05-11T00:42:06;100604.91;;;15.70;100.00
11710;BME280;5911;51.036;6.972;2023-05-11T00:44:34;100585.63;;;15.50;100.00
11710;BME280;5911;51.036;6.972;2023-05-11T00:47:02;100571.13;;;15.36;100.00
11710;BME280;5911;51.036;6.972;2023-05-11T00:49:30;100608.34;;;15.44;100.00
11710;BME280;5911;51.036;6.972;2023-05-11T00:51:59;100601.72;;;15.40;100.00
11710;BME280;5911;51.036;6.972;2023-05-11T00:54:29;100574.38;;;15.30;100.00
11710;BME280;5911;51.036;6.972;2023-05-11T00:56:57;100603.38;;;15.41;100.00
11710;BME280;5911;51.036;6.972;2023-05-11T00:59:25;100609.63;;;15.32;100.00
11710;BME280;5911;51.036;6.972;2023-05-11T01:01:53;100590.56;;;15.37;100.00
11710;BME280;5911;51.036;6.972;2023-05-11T01:04:22;100591.38;;;15.37;100.00
11710;BME280;5911;51.036;6.972;2023-05-11T01:06:56;100598.84;;;15.34;100.00
11710;BME280;5911;51.036;6.972;2023-05-11T01:09:39;100599.28;;;15.29;100.00
11710;BME280;5911;51.036;6.972;2023-05-11T01:12:16;100578.28;;;15.18;100.00
11710;BME280;5911;51.036;6.972;2023-05-11T01:14:54;100593.66;;;15.32;100.00
11710;BME280;5911;51.036;6.972;2023-05-11T01:17:33;100593.31;;;15.27;100.00
11710;BME280;5911;51.036;6.972;2023-05-11T01:20:06;100591.38;;;15.37;100.00
11710;BME280;5911;51.036;6.972;2023-05-11T01:22:47;100586.69;;;15.31;100.00
11710;BME280;5911;51.036;6.972;2023-05-11T01:25:30;100600.88;;;15.40;100.00
11710;BME280;5911;51.036;6.972;2023-05-11T01:28:22;100598.06;;;15.41;100.00
11710;BME280;5911;51.036;6.972;2023-05-11T01:30:56;100598.91;;;15.42;100.00
11710;BME280;5911;51.036;6.972;2023-05-11T01:33:31;100610.88;;;15.46;100.00
11710;BME280;5911;51.036;6.972;2023-05-11T01:36:04;100604.09;;;15.52;100.00
11710;BME280;5911;51.036;6.972;2023-05-11T01:38:34;100602.28;;;15.52;100.00
11710;BME280;5911;51.036;6.972;2023-05-11T01:41:09;100607.44;;;15.54;100.00
11710;BME280;5911;51.036;6.972;2023-05-11T01:43:40;100599.47;;;15.54;100.00
11710;BME280;5911;51.036;6.972;2023-05-11T01:46:11;100594.03;;;15.55;100.00
11710;BME280;5911;51.036;6.972;2023-05-11T01:48:43;100582.81;;;15.52;100.00
11710;BME280;5911;51.036;6.972;2023-05-11T01:51:14;100567.00;;;15.42;100.00
11710;BME280;5911;51.036;6.972;2023-05-11T01:53:45;100578.91;;;15.56;100.00
11710;BME280;5911;51.036;6.972;2023-05-11T01:56:15;100575.31;;;15.47;100.00
11710;BME280;5911;51.036;6.972;2023-05-11T01:58:47;100585.88;;;15.57;100.00
11710;BME280;5911;51.036;6.972;2023-05-11T02:01:18;100585.50;;;15.52;100.00
11710;BME280;5911;51.036;6.972;2023-05-11T02:03:48;100584.81;;;15.49;100.00
11710;BME280;5911;51.036;6.972;2023-05-11T02:06:18;100582.81;;;15.52;100.00
11710;BME280;5911;51.036;6.972;2023-05-11T02:08:47;100581.47;;;15.47;100.00
11710;BME280;5911;51.036;6.972;2023-05-11T02:11:18;100591.13;;;15.48;100.00
11710;BME280;5911;51.036;6.972;2023-05-11T02:13:48;100560.75;;;15.25;100.00
11710;BME280;5911;51.036;6.972;2023-05-11T02:16:20;100587.44;;;15.41;100.00
11710;BME280;5911;51.036;6.972;2023-05-11T02:18:49;100588.56;;;15.39;100.00
11710;BME280;5911;51.036;6.972;2023-05-11T02:21:17;100596.69;;;15.37;100.00
11710;BME280;5911;51.036;6.972;2023-05-11T02:23:47;100603.03;;;15.44;100.00
11710;BME280;5911;51.036;6.972;2023-05-11T02:26:17;100538.97;;;14.96;100.00
11710;BME280;5911;51.036;6.972;2023-05-11T02:28:44;100610.38;;;15.42;100.00
11710;BME280;5911;51.036;6.972;2023-05-11T02:31:16;100610.38;;;15.42;100.00
11710;BME280;5911;51.036;6.972;2023-05-11T02:33:48;100612.34;;;15.40;100.00
11710;BME280;5911;51.036;6.972;2023-05-11T02:36:20;100619.00;;;15.44;100.00
11710;BME280;5911;51.036;6.972;2023-05-11T02:38:55;100617.84;;;15.47;100.00
11710;BME280;5911;51.036;6.972;2023-05-11T02:41:27;100614.72;;;15.52;100.00
11710;BME280;5911;51.036;6.972;2023-05-11T02:44:01;100621.72;;;15.53;100.00
11710;BME280;5911;51.036;6.972;2023-05-11T02:46:33;100611.41;;;15.49;100.00
11710;BME280;5911;51.036;6.972;2023-05-11T02:49:07;100619.63;;;15.56;100.00
11710;BME280;5911;51.036;6.972;2023-05-11T02:51:38;100627.66;;;15.46;100.00
11710;BME280;5911;51.036;6.972;2023-05-11T02:54:08;100600.34;;;15.36;100.00
11710;BME280;5911;51.036;6.972;2023-05-11T02:56:42;100625.81;;;15.47;100.00
11710;BME280;5911;51.036;6.972;2023-05-11T02:59:11;100620.31;;;15.40;100.00
11710;BME280;5911;51.036;6.972;2023-05-11T03:01:39;100612.97;;;15.34;100.00
11710;BME280;5911;51.036;6.972;2023-05-11T03:04:10;100623.22;;;15.29;100.00
11710;BME280;5911;51.036;6.972;2023-05-11T03:06:38;100624.94;;;15.38;100.00
11710;BME280;5911;51.036;6.972;2023-05-11T03:09:08;100625.78;;;15.39;100.00
11710;BME280;5911;51.036;6.972;2023-05-11T03:11:41;100624.94;;;15.38;100.00
11710;BME280;5911;51.036;6.972;2023-05-11T03:14:10;100618.16;;;15.44;100.00
11710;BME280;5911;51.036;6.972;2023-05-11T03:16:40;100624.03;;;15.30;100.00
11710;BME280;5911;51.036;6.972;2023-05-11T03:19:11;100615.47;;;15.36;100.00
11710;BME280;5911;51.036;6.972;2023-05-11T03:21:40;100616.00;;;15.39;100.00
11710;BME280;5911;51.036;6.972;2023-05-11T03:24:09;100620.16;;;15.42;100.00
11710;BME280;5911;51.036;6.972;2023-05-11T03:26:38;100614.00;;;15.41;100.00
11710;BME280;5911;51.036;6.972;2023-05-11T03:29:09;100556.56;;;14.97;100.00
11710;BME280;5911;51.036;6.972;2023-05-11T03:31:38;100615.34;;;15.45;100.00
11710;BME280;5911;51.036;6.972;2023-05-11T03:34:06;100609.31;;;15.35;100.00
11710;BME280;5911;51.036;6.972;2023-05-11T03:36:40;100617.84;;;15.47;100.00
11710;BME280;5911;51.036;6.972;2023-05-11T03:39:10;100610.28;;;15.34;100.00
11710;BME280;5911;51.036;6.972;2023-05-11T03:41:39;100614.63;;;15.35;100.00
11710;BME280;5911;51.036;6.972;2023-05-11T03:44:10;100610.97;;;15.36;100.00
11710;BME280;5911;51.036;6.972;2023-05-11T03:46:42;100612.13;;;15.34;100.00
11710;BME280;5911;51.036;6.972;2023-05-11T03:49:12;100547.59;;;14.98;100.00
11710;BME280;5911;51.036;6.972;2023-05-11T03:51:43;100611.50;;;15.40;100.00
11710;BME280;5911;51.036;6.972;2023-05-11T03:54:11;100609.00;;;15.38;100.00
11710;BME280;5911;51.036;6.972;2023-05-11T03:56:39;100604.00;;;15.35;100.00
11710;BME280;5911;51.036;6.972;2023-05-11T03:59:07;100614.00;;;15.41;100.00
11710;BME280;5911;51.036;6.972;2023-05-11T04:01:36;100604.72;;;15.45;100.00
11710;BME280;5911;51.036;6.972;2023-05-11T04:04:04;100605.41;;;15.47;100.00
11710;BME280;5911;51.036;6.972;2023-05-11T04:06:32;100605.41;;;15.47;100.00
11710;BME280;5911;51.036;6.972;2023-05-11T04:09:12;100608.34;;;15.44;100.00
11710;BME280;5911;51.036;6.972;2023-05-11T04:11:40;100607.88;;;15.41;100.00
11710;BME280;5911;51.036;6.972;2023-05-11T04:14:08;100605.66;;;15.36;100.00
11710;BME280;5911;51.036;6.972;2023-05-11T04:16:37;100610.97;;;15.36;100.00
11710;BME280;5911;51.036;6.972;2023-05-11T04:19:05;100610.00;;;15.37;100.00
11710;BME280;5911;51.036;6.972;2023-05-11T04:21:33;100612.66;;;15.37;100.00
11710;BME280;5911;51.036;6.972;2023-05-11T04:24:02;100609.31;;;15.35;100.00
11710;BME280;5911;51.036;6.972;2023-05-11T04:26:32;100611.81;;;15.37;100.00
11710;BME280;5911;51.036;6.972;2023-05-11T04:29:00;100617.66;;;15.40;100.00
11710;BME280;5911;51.036;6.972;2023-05-11T04:31:27;100608.25;;;15.28;100.00
11710;BME280;5911;51.036;6.972;2023-05-11T04:33:56;100610.91;;;15.28;100.00
11710;BME280;5911;51.036;6.972;2023-05-11T04:36:25;100619.63;;;15.38;100.00
11710;BME280;5911;51.036;6.972;2023-05-11T04:38:53;100624.13;;;15.38;100.00
11710;BME280;5911;51.036;6.972;2023-05-11T04:41:21;100623.28;;;15.37;100.00
11710;BME280;5911;51.036;6.972;2023-05-11T04:43:51;100620.63;;;15.37;100.00
11710;BME280;5911;51.036;6.972;2023-05-11T04:46:19;100623.59;;;15.34;100.00
11710;BME280;5911;51.036;6.972;2023-05-11T04:48:48;100627.53;;;15.30;100.00
11710;BME280;5911;51.036;6.972;2023-05-11T04:51:16;100619.09;;;15.35;100.00
11710;BME280;5911;51.036;6.972;2023-05-11T04:53:44;100626.78;;;15.38;100.00
11710;BME280;5911;51.036;6.972;2023-05-11T04:56:11;100623.44;;;15.36;100.00
11710;BME280;5911;51.036;6.972;2023-05-11T04:58:40;100629.28;;;15.39;100.00
11710;BME280;5911;51.036;6.972;2023-05-11T05:01:09;100631.41;;;15.36;100.00
11710;BME280;5911;51.036;6.972;2023-05-11T05:03:38;100624.94;;;15.38;100.00
11710;BME280;5911;51.036;6.972;2023-05-11T05:06:06;100635.09;;;15.43;100.00
11710;BME280;5911;51.036;6.972;2023-05-11T05:08:35;100633.63;;;15.40;100.00
11710;BME280;5911;51.036;6.972;2023-05-11T05:11:03;100637.25;;;15.39;100.00
11710;BME280;5911;51.036;6.972;2023-05-11T05:13:31;100642.09;;;15.44;100.00
11710;BME280;5911;51.036;6.972;2023-05-11T05:15:59;100648.75;;;15.48;100.00
11710;BME280;5911;51.036;6.972;2023-05-11T05:18:28;100648.91;;;15.46;100.00
11710;BME280;5911;51.036;6.972;2023-05-11T05:20:56;100649.75;;;15.47;100.00
11710;BME280;5911;51.036;6.972;2023-05-11T05:23:24;100648.75;;;15.48;100.00
11710;BME280;5911;51.036;6.972;2023-05-11T05:25:52;100649.28;;;15.52;100.00
11710;BME280;5911;51.036;6.972;2023-05-11T05:28:20;100656.22;;;15.44;100.00
11710;BME280;5911;51.036;6.972;2023-05-11T05:30:48;100662.06;;;15.48;100.00
11710;BME280;5911;51.036;6.972;2023-05-11T05:33:17;100659.25;;;15.49;100.00
11710;BME280;5911;51.036;6.972;2023-05-11T05:35:47;100659.56;;;15.46;100.00
11710;BME280;5911;51.036;6.972;2023-05-11T05:38:15;100664.25;;;15.53;100.00
11710;BME280;5911;51.036;6.972;2023-05-11T05:40:43;100649.59;;;15.48;100.00
11710;BME280;5911;51.036;6.972;2023-05-11T05:43:11;100667.91;;;15.52;100.00
11710;BME280;5911;51.036;6.972;2023-05-11T05:45:39;100669.31;;;15.56;100.00
11710;BME280;5911;51.036;6.972;2023-05-11T05:48:08;100676.44;;;15.55;100.00
11710;BME280;5911;51.036;6.972;2023-05-11T05:50:37;100670.41;;;15.53;100.00
11710;BME280;5911;51.036;6.972;2023-05-11T05:53:06;100668.75;;;15.52;100.00
11710;BME280;5911;51.036;6.972;2023-05-11T05:55:35;100674.28;;;15.59;100.00
11710;BME280;5911;51.036;6.972;2023-05-11T05:58:05;100675.13;;;15.59;100.00
11710;BME280;5911;51.036;6.972;2023-05-11T06:00:34;100680.66;;;15.66;100.00
11710;BME280;5911;51.036;6.972;2023-05-11T06:03:06;100675.97;;;15.60;100.00
11710;BME280;5911;51.036;6.972;2023-05-11T06:05:35;100655.91;;;15.47;100.00
11710;BME280;5911;51.036;6.972;2023-05-11T06:08:03;100679.00;;;15.65;100.00
11710;BME280;5911;51.036;6.972;2023-05-11T06:10:39;100687.50;;;15.68;100.00
11710;BME280;5911;51.036;6.972;2023-05-11T06:13:09;100688.19;;;15.70;100.00
11710;BME280;5911;51.036;6.972;2023-05-11T06:15:38;100690.16;;;15.68;100.00
11710;BME280;5911;51.036;6.972;2023-05-11T06:18:17;100690.69;;;15.72;100.00
11710;BME280;5911;51.036;6.972;2023-05-11T06:20:46;100668.06;;;15.68;100.00
11710;BME280;5911;51.036;6.972;2023-05-11T06:23:15;100682.75;;;15.80;100.00
11710;BME280;5911;51.036;6.972;2023-05-11T06:25:44;100677.94;;;15.83;100.00
11710;BME280;5911;51.036;6.972;2023-05-11T06:28:13;100672.63;;;15.83;100.00
11710;BME280;5911;51.036;6.972;2023-05-11T06:30:41;100685.81;;;15.93;100.00
11710;BME280;5911;51.036;6.972;2023-05-11T06:33:10;100680.78;;;15.90;100.00
11710;BME280;5911;51.036;6.972;2023-05-11T06:35:38;100679.50;;;15.94;100.00
11710;BME280;5911;51.036;6.972;2023-05-11T06:38:09;100677.38;;;15.98;100.00
11710;BME280;5911;51.036;6.972;2023-05-11T06:40:37;100678.34;;;15.97;100.00
11710;BME280;5911;51.036;6.972;2023-05-11T06:43:06;100680.84;;;15.98;100.00
11710;BME280;5911;51.036;6.972;2023-05-11T06:45:45;100671.56;;;16.02;100.00
11710;BME280;5911;51.036;6.972;2023-05-11T06:48:14;100662.84;;;15.92;100.00
11710;BME280;5911;51.036;6.972;2023-05-11T06:50:42;100681.38;;;16.02;100.00
11710;BME280;5911;51.036;6.972;2023-05-11T06:53:11;100685.75;;;16.11;100.00
11710;BME280;5911;51.036;6.972;2023-05-11T06:55:39;100686.56;;;16.11;100.00
11710;BME280;5911;51.036;6.972;2023-05-11T06:58:08;100684.59;;;16.13;100.00
11710;BME280;5911;51.036;6.972;2023-05-11T07:00:36;100680.94;;;16.14;100.00
11710;BME280;5911;51.036;6.972;2023-05-11T07:03:04;100679.97;;;16.24;100.00
11710;BME280;5911;51.036;6.972;2023-05-11T07:05:34;100676.28;;;16.16;100.00
11710;BME280;5911;51.036;6.972;2023-05-11T07:08:02;100688.16;;;16.30;100.00
11710;BME280;5911;51.036;6.972;2023-05-11T07:10:30;100687.16;;;16.31;100.00
11710;BME280;5911;51.036;6.972;2023-05-11T07:12:58;100668.63;;;16.13;100.00
11710;BME280;5911;51.036;6.972;2023-05-11T07:15:27;100687.28;;;16.22;100.00
11710;BME280;5911;51.036;6.972;2023-05-11T07:17:55;100694.94;;;16.25;100.00
11710;BME280;5911;51.036;6.972;2023-05-11T07:20:23;100686.13;;;16.24;100.00
11710;BME280;5911;51.036;6.972;2023-05-11T07:22:51;100687.31;;;16.30;100.00
11710;BME280;5911;51.036;6.972;2023-05-11T07:25:18;100696.47;;;16.27;100.00
11710;BME280;5911;51.036;6.972;2023-05-11T07:27:46;100687.28;;;16.22;100.00
11710;BME280;5911;51.036;6.972;2023-05-11T07:30:14;100687.28;;;16.22;100.00
11710;BME280;5911;51.036;6.972;2023-05-11T07:32:45;100690.31;;;16.27;100.00
11710;BME280;5911;51.036;6.972;2023-05-11T07:35:13;100695.31;;;16.30;100.00
11710;BME280;5911;51.036;6.972;2023-05-11T07:37:41;100677.53;;;16.38;100.00
11710;BME280;5911;51.036;6.972;2023-05-11T07:40:09;100686.84;;;16.34;100.00
11710;BME280;5911;51.036;6.972;2023-05-11T07:42:37;100683.84;;;16.37;100.00
11710;BME280;5911;51.036;6.972;2023-05-11T07:45:06;100681.34;;;16.36;100.00
11710;BME280;5911;51.036;6.972;2023-05-11T07:47:34;100677.84;;;16.35;100.00
11710;BME280;5911;51.036;6.972;2023-05-11T07:50:05;100682.00;;;16.38;100.00
11710;BME280;5911;51.036;6.972;2023-05-11T07:52:33;100679.09;;;16.49;100.00
11710;BME280;5911;51.036;6.972;2023-05-11T07:55:01;100678.06;;;16.50;100.00
11710;BME280;5911;51.036;6.972;2023-05-11T07:57:29;100667.25;;;16.51;100.00
11710;BME280;5911;51.036;6.972;2023-05-11T07:59:57;100675.06;;;16.53;100.00
11710;BME280;5911;51.036;6.972;2023-05-11T08:02:25;100676.75;;;16.54;100.00
11710;BME280;5911;51.036;6.972;2023-05-11T08:04:53;100678.41;;;16.55;100.00
11710;BME280;5911;51.036;6.972;2023-05-11T08:07:22;100678.41;;;16.55;100.00
11710;BME280;5911;51.036;6.972;2023-05-11T08:09:50;100679.41;;;16.54;100.00
11710;BME280;5911;51.036;6.972;2023-05-11T08:12:18;100673.44;;;16.60;100.00
11710;BME280;5911;51.036;6.972;2023-05-11T08:14:45;100682.47;;;16.67;100.00
11710;BME280;5911;51.036;6.972;2023-05-11T08:17:25;100680.47;;;16.69;100.00
11710;BME280;5911;51.036;6.972;2023-05-11T08:19:53;100684.00;;;16.78;100.00
11710;BME280;5911;51.036;6.972;2023-05-11T08:22:22;100683.84;;;16.79;100.00
11710;BME280;5911;51.036;6.972;2023-05-11T08:24:50;100683.19;;;16.77;100.00
11710;BME280;5911;51.036;6.972;2023-05-11T08:27:18;100683.97;;;16.70;100.00
11710;BME280;5911;51.036;6.972;2023-05-11T08:29:46;100689.81;;;16.73;100.00
11710;BME280;5911;51.036;6.972;2023-05-11T08:32:14;100680.63;;;16.68;100.00
11710;BME280;5911;51.036;6.972;2023-05-11T08:34:42;100684.84;;;16.78;100.00
11710;BME280;5911;51.036;6.972;2023-05-11T08:37:10;100686.88;;;16.93;100.00
11710;BME280;5911;51.036;6.972;2023-05-11T08:39:39;100682.69;;;16.90;100.00
11710;BME280;5911;51.036;6.972;2023-05-11T08:42:12;100690.53;;;16.92;100.00
11710;BME280;5911;51.036;6.972;2023-05-11T08:44:42;100677.69;;;16.87;100.00
11710;BME280;5911;51.036;6.972;2023-05-11T08:47:11;100687.19;;;16.90;100.00
11710;BME280;5911;51.036;6.972;2023-05-11T08:49:42;100691.34;;;16.92;100.00
11710;BME280;5911;51.036;6.972;2023-05-11T08:52:11;100682.84;;;16.88;100.00
11710;BME280;5911;51.036;6.972;2023-05-11T08:54:41;100688.03;;;16.90;100.00
11710;BME280;5911;51.036;6.972;2023-05-11T08:57:10;100686.19;;;16.91;100.00
11710;BME280;5911;51.036;6.972;2023-05-11T08:59:39;100692.19;;;16.93;100.00
11710;BME280;5911;51.036;6.972;2023-05-11T09:02:09;100694.84;;;16.93;100.00
11710;BME280;5911;51.036;6.972;2023-05-11T09:04:41;100688.19;;;16.88;100.00
11710;BME280;5911;51.036;6.972;2023-05-11T09:07:13;100684.03;;;16.94;100.00
11710;BME280;5911;51.036;6.972;2023-05-11T09:09:44;100693.19;;;17.00;100.00
11710;BME280;5911;51.036;6.972;2023-05-11T09:12:12;100687.03;;;16.99;100.00
11710;BME280;5911;51.036;6.972;2023-05-11T09:14:40;100683.19;;;17.02;100.00
11710;BME280;5911;51.036;6.972;2023-05-11T09:17:08;100689.88;;;17.06;100.00
11710;BME280;5911;51.036;6.972;2023-05-11T09:19:55;100688.19;;;17.13;100.00
11710;BME280;5911;51.036;6.972;2023-05-11T09:22:23;100687.88;;;17.16;100.00
11710;BME280;5911;51.036;6.972;2023-05-11T09:24:55;100687.88;;;17.16;100.00
11710;BME280;5911;51.036;6.972;2023-05-11T09:27:23;100671.72;;;17.17;100.00
11710;BME280;5911;51.036;6.972;2023-05-11T09:29:52;100689.19;;;17.28;100.00
11710;BME280;5911;51.036;6.972;2023-05-11T09:32:20;100683.03;;;17.36;100.00
11710;BME280;5911;51.036;6.972;2023-05-11T09:34:48;100688.19;;;17.45;100.00
11710;BME280;5911;51.036;6.972;2023-05-11T09:37:17;100686.06;;;17.41;100.00
11710;BME280;5911;51.036;6.972;2023-05-11T09:39:45;100690.69;;;17.47;100.00
11710;BME280;5911;51.036;6.972;2023-05-11T09:42:20;100690.03;;;17.53;100.00
11710;BME280;5911;51.036;6.972;2023-05-11T09:44:48;100688.69;;;17.57;100.00
11710;BME280;5911;51.036;6.972;2023-05-11T09:47:17;100686.22;;;17.64;100.00
11710;BME280;5911;51.036;6.972;2023-05-11T09:49:46;100692.22;;;17.66;100.00
11710;BME280;5911;51.036;6.972;2023-05-11T09:52:14;100687.56;;;17.68;100.00
11710;BME280;5911;51.036;6.972;2023-05-11T09:54:44;100680.53;;;17.67;100.00
11710;BME280;5911;51.036;6.972;2023-05-11T09:57:25;100686.22;;;17.72;100.00
11710;BME280;5911;51.036;6.972;2023-05-11T09:59:54;100686.84;;;17.74;100.00
11710;BME280;5911;51.036;6.972;2023-05-11T10:02:24;100687.22;;;17.71;100.00
11710;BME280;5911;51.036;6.972;2023-05-11T10:04:54;100695.19;;;17.79;100.00
11710;BME280;5911;51.036;6.972;2023-05-11T10:07:24;100690.19;;;17.76;100.00
11710;BME280;5911;51.036;6.972;2023-05-11T10:09:53;100688.06;;;17.71;100.00
11710;BME280;5911;51.036;6.972;2023-05-11T10:12:24;100688.22;;;17.70;100.00
11710;BME280;5911;51.036;6.972;2023-05-11T10:14:54;100693.03;;;17.74;100.00
11710;BME280;5911;51.036;6.972;2023-05-11T10:17:24;100688.19;;;17.78;100.00
11710;BME280;5911;51.036;6.972;2023-05-11T10:19:54;100683.34;;;17.81;100.00
11710;BME280;5911;51.036;6.972;2023-05-11T10:22:23;100682.47;;;17.89;100.00
11710;BME280;5911;51.036;6.972;2023-05-11T10:24:52;100677.16;;;17.89;100.00
11710;BME280;5911;51.036;6.972;2023-05-11T10:27:20;100678.16;;;17.88;100.00
11710;BME280;5911;51.036;6.972;2023-05-11T10:29:49;100675.81;;;17.93;100.00
11710;BME280;5911;51.036;6.972;2023-05-11T10:32:18;100672.13;;;17.94;100.00
11710;BME280;5911;51.036;6.972;2023-05-11T10:34:47;100672.97;;;17.95;100.00
11710;BME280;5911;51.036;6.972;2023-05-11T10:37:16;100673.13;;;18.01;100.00
11710;BME280;5911;51.036;6.972;2023-05-11T10:39:44;100674.09;;;18.08;100.00
11710;BME280;5911;51.036;6.972;2023-05-11T10:42:28;100670.56;;;18.16;100.00
11710;BME280;5911;51.036;6.972;2023-05-11T10:45:19;100668.00;;;18.31;100.00
11710;BME280;5911;51.036;6.972;2023-05-11T10:54:07;100680.69;;;18.28;100.00
11710;BME280;5911;51.036;6.972;2023-05-11T10:56:51;100672.84;;;18.27;100.00
11710;BME280;5911;51.036;6.972;2023-05-11T10:59:44;100675.63;;;18.42;100.00
11710;BME280;5911;51.036;6.972;2023-05-11T11:02:18;100672.56;;;18.53;100.00
11710;BME280;5911;51.036;6.972;2023-05-11T11:04:47;100677.53;;;18.64;100.00
11710;BME280;5911;51.036;6.972;2023-05-11T11:07:16;100678.56;;;18.63;100.00
11710;BME280;5911;51.036;6.972;2023-05-11T11:09:53;100672.81;;;18.74;100.00
11710;BME280;5911;51.036;6.972;2023-05-11T11:12:22;100675.53;;;18.89;100.00
11710;BME280;5911;51.036;6.972;2023-05-11T11:14:53;100673.69;;;18.89;100.00
11710;BME280;5911;51.036;6.972;2023-05-11T11:17:24;100674.69;;;19.11;100.00
11710;BME280;5911;51.036;6.972;2023-05-11T11:19:53;100680.09;;;19.26;99.65
11710;BME280;5911;51.036;6.972;2023-05-11T11:22:43;100674.59;;;19.42;100.00
11710;BME280;5911;51.036;6.972;2023-05-11T11:25:50;100666.00;;;19.32;98.90
11710;BME280;5911;51.036;6.972;2023-05-11T11:28:03;100672.19;;;19.55;100.00
11710;BME280;5911;51.036;6.972;2023-05-11T11:30:31;100674.88;;;19.55;98.34
11710;BME280;5911;51.036;6.972;2023-05-11T11:33:31;100684.09;;;19.53;98.69
11710;BME280;5911;51.036;6.972;2023-05-11T11:36:03;100669.13;;;19.58;100.00
11710;BME280;5911;51.036;6.972;2023-05-11T11:38:31;100674.88;;;19.55;96.24
11710;BME280;5911;51.036;6.972;2023-05-11T11:41:00;100674.03;;;19.55;98.29
11710;BME280;5911;51.036;6.972;2023-05-11T11:43:42;100678.56;;;19.54;96.09
11710;BME280;5911;51.036;6.972;2023-05-11T11:46:24;100669.03;;;19.52;93.76
11710;BME280;5911;51.036;6.972;2023-05-11T11:49:05;100664.06;;;19.63;95.54
11710;BME280;5911;51.036;6.972;2023-05-11T11:51:34;100668.78;;;19.61;96.18
11710;BME280;5911;51.036;6.972;2023-05-11T11:54:02;100663.78;;;19.58;96.60
11710;BME280;5911;51.036;6.972;2023-05-11T11:56:39;100661.66;;;19.54;96.37
11710;BME280;5911;51.036;6.972;2023-05-11T11:59:11;100659.06;;;19.60;95.02
11710;BME280;5911;51.036;6.972;2023-05-11T12:01:42;100663.91;;;19.80;95.66
11710;BME280;5911;51.036;6.972;2023-05-11T12:04:38;100660.94;;;19.89;93.94
11710;BME280;5911;51.036;6.972;2023-05-11T12:07:12;100660.22;;;19.95;92.49
11710;BME280;5911;51.036;6.972;2023-05-11T12:09:44;100657.88;;;20.07;94.16
11710;BME280;5911;51.036;6.972;2023-05-11T12:12:15;100664.38;;;20.13;91.48
11710;BME280;5911;51.036;6.972;2023-05-11T12:14:44;100658.06;;;20.20;93.31
11710;BME280;5911;51.036;6.972;2023-05-11T12:17:22;100665.63;;;20.02;91.89
11710;BME280;5911;51.036;6.972;2023-05-11T12:19:52;100652.34;;;19.94;90.54
11710;BME280;5911;51.036;6.972;2023-05-11T12:22:23;100640.00;;;19.93;90.26
11710;BME280;5911;51.036;6.972;2023-05-11T12:24:54;100652.16;;;20.10;91.19
11710;BME280;5911;51.036;6.972;2023-05-11T12:27:25;100654.19;;;20.08;92.97
11710;BME280;5911;51.036;6.972;2023-05-11T12:29:53;100654.84;;;19.95;91.00
11710;BME280;5911;51.036;6.972;2023-05-11T12:32:26;100647.72;;;19.88;90.92
11710;BME280;5911;51.036;6.972;2023-05-11T12:35:00;100647.13;;;19.86;95.03
11710;BME280;5911;51.036;6.972;2023-05-11T12:37:29;100637.22;;;20.01;94.05
11710;BME280;5911;51.036;6.972;2023-05-11T12:39:58;100640.59;;;20.24;92.60
11710;BME280;5911;51.036;6.972;2023-05-11T12:42:26;100632.06;;;20.50;91.49
11710;BME280;5911;51.036;6.972;2023-05-11T12:44:54;100636.44;;;20.36;89.98
11710;BME280;5911;51.036;6.972;2023-05-11T12:47:22;100641.28;;;20.12;90.29
11710;BME280;5911;51.036;6.972;2023-05-11T12:49:50;100632.59;;;19.95;89.98
11710;BME280;5911;51.036;6.972;2023-05-11T12:52:22;100627.72;;;19.98;94.66
11710;BME280;5911;51.036;6.972;2023-05-11T12:54:50;100632.59;;;19.95;91.18
11710;BME280;5911;51.036;6.972;2023-05-11T12:57:23;100630.00;;;20.16;91.38
11710;BME280;5911;51.036;6.972;2023-05-11T13:00:07;100628.88;;;20.25;90.22
11710;BME280;5911;51.036;6.972;2023-05-11T13:02:42;100629.34;;;20.14;90.76
11710;BME280;5911;51.036;6.972;2023-05-11T13:05:12;100600.09;;;19.98;90.85
11710;BME280;5911;51.036;6.972;2023-05-11T13:07:41;100581.94;;;19.79;91.79
11710;BME280;5911;51.036;6.972;2023-05-11T13:10:11;100615.97;;;20.14;92.18
11710;BME280;5911;51.036;6.972;2023-05-11T13:12:48;100610.47;;;20.22;91.07